sensor_id;sensor_type;location;lat;lon;timestamp;P1;durP1;ratioP1;P2;durP2;ratioP2
15929;SDS011;8064;51.142;4.780;2023-07-16T00:01:21;7.73;;;1.73;;
15929;SDS011;8064;51.142;4.780;2023-07-16T00:03:47;6.80;;;1.80;;
15929;SDS011;8064;51.142;4.780;2023-07-16T00:06:12;4.93;;;1.50;;
15929;SDS011;8064;51.142;4.780;2023-07-16T00:08:38;6.37;;;2.00;;
15929;SDS011;8064;51.142;4.780;2023-07-16T00:11:04;6.67;;;1.67;;
15929;SDS011;8064;51.142;4.780;2023-07-16T00:13:30;4.63;;;1.80;;
15929;SDS011;8064;51.142;4.780;2023-07-16T00:15:55;4.93;;;1.70;;
15929;SDS011;8064;51.142;4.780;2023-07-16T00:18:21;5.67;;;1.83;;
15929;SDS011;8064;51.142;4.780;2023-07-16T00:20:47;6.20;;;1.60;;
15929;SDS011;8064;51.142;4.780;2023-07-16T00:23:13;5.93;;;1.70;;
15929;SDS011;8064;51.142;4.780;2023-07-16T00:25:38;3.83;;;1.63;;
15929;SDS011;8064;51.142;4.780;2023-07-16T00:28:04;4.77;;;1.73;;
15929;SDS011;8064;51.142;4.780;2023-07-16T00:30:30;6.20;;;1.73;;
15929;SDS011;8064;51.142;4.780;2023-07-16T00:32:55;4.60;;;1.80;;
15929;SDS011;8064;51.142;4.780;2023-07-16T00:35:21;7.47;;;1.90;;
15929;SDS011;8064;51.142;4.780;2023-07-16T00:37:47;6.30;;;1.73;;
15929;SDS011;8064;51.142;4.780;2023-07-16T00:40:13;6.33;;;1.90;;
15929;SDS011;8064;51.142;4.780;2023-07-16T00:42:38;5.97;;;1.67;;
15929;SDS011;8064;51.142;4.780;2023-07-16T00:45:06;4.87;;;1.87;;
15929;SDS011;8064;51.142;4.780;2023-07-16T00:47:36;5.67;;;2.10;;
15929;SDS011;8064;51.142;4.780;2023-07-16T00:50:02;6.80;;;2.30;;
15929;SDS011;8064;51.142;4.780;2023-07-16T00:52:28;4.43;;;1.97;;
15929;SDS011;8064;51.142;4.780;2023-07-16T00:54:54;5.07;;;2.17;;
15929;SDS011;8064;51.142;4.780;2023-07-16T00:57:20;5.30;;;2.50;;
15929;SDS011;8064;51.142;4.780;2023-07-16T00:59:46;4.67;;;1.60;;
15929;SDS011;8064;51.142;4.780;2023-07-16T01:02:12;5.27;;;2.13;;
15929;SDS011;8064;51.142;4.780;2023-07-16T01:04:37;6.63;;;2.33;;
15929;SDS011;8064;51.142;4.780;2023-07-16T01:07:04;5.67;;;1.93;;
15929;SDS011;8064;51.142;4.780;2023-07-16T01:09:31;6.00;;;1.80;;
15929;SDS011;8064;51.142;4.780;2023-07-16T01:11:58;5.17;;;2.00;;
15929;SDS011;8064;51.142;4.780;2023-07-16T01:14:26;7.80;;;2.40;;
15929;SDS011;8064;51.142;4.780;2023-07-16T01:16:52;4.37;;;1.90;;
15929;SDS011;8064;51.142;4.780;2023-07-16T01:19:23;13.80;;;2.30;;
15929;SDS011;8064;51.142;4.780;2023-07-16T01:24:51;6.00;;;2.10;;
15929;SDS011;8064;51.142;4.780;2023-07-16T01:30:08;2.83;;;1.50;;
15929;SDS011;8064;51.142;4.780;2023-07-16T01:32:35;5.13;;;2.10;;
15929;SDS011;8064;51.142;4.780;2023-07-16T01:35:02;3.87;;;1.80;;
15929;SDS011;8064;51.142;4.780;2023-07-16T01:37:30;6.73;;;2.10;;
15929;SDS011;8064;51.142;4.780;2023-07-16T01:39:56;7.20;;;1.93;;
15929;SDS011;8064;51.142;4.780;2023-07-16T01:42:22;6.17;;;2.10;;
15929;SDS011;8064;51.142;4.780;2023-07-16T01:44:48;4.77;;;1.70;;
15929;SDS011;8064;51.142;4.780;2023-07-16T01:47:35;3.67;;;2.00;;
15929;SDS011;8064;51.142;4.780;2023-07-16T01:50:21;6.37;;;2.50;;
15929;SDS011;8064;51.142;4.780;2023-07-16T01:52:47;6.40;;;1.93;;
15929;SDS011;8064;51.142;4.780;2023-07-16T01:55:12;4.47;;;2.10;;
15929;SDS011;8064;51.142;4.780;2023-07-16T01:57:38;5.17;;;2.17;;
15929;SDS011;8064;51.142;4.780;2023-07-16T02:00:04;7.37;;;2.07;;
15929;SDS011;8064;51.142;4.780;2023-07-16T02:02:30;5.67;;;2.17;;
15929;SDS011;8064;51.142;4.780;2023-07-16T02:04:56;7.00;;;1.93;;
15929;SDS011;8064;51.142;4.780;2023-07-16T02:07:22;5.57;;;2.40;;
15929;SDS011;8064;51.142;4.780;2023-07-16T02:09:49;3.80;;;1.83;;
15929;SDS011;8064;51.142;4.780;2023-07-16T02:12:15;7.67;;;2.47;;
15929;SDS011;8064;51.142;4.780;2023-07-16T02:14:41;6.53;;;2.53;;
15929;SDS011;8064;51.142;4.780;2023-07-16T02:17:06;7.27;;;2.73;;
15929;SDS011;8064;51.142;4.780;2023-07-16T02:19:32;8.53;;;2.50;;
15929;SDS011;8064;51.142;4.780;2023-07-16T02:21:58;8.57;;;2.77;;
15929;SDS011;8064;51.142;4.780;2023-07-16T02:24:24;6.57;;;2.77;;
15929;SDS011;8064;51.142;4.780;2023-07-16T02:26:49;8.47;;;3.10;;
15929;SDS011;8064;51.142;4.780;2023-07-16T02:29:15;6.90;;;2.90;;
15929;SDS011;8064;51.142;4.780;2023-07-16T02:31:41;4.93;;;2.60;;
15929;SDS011;8064;51.142;4.780;2023-07-16T02:34:11;5.23;;;2.63;;
15929;SDS011;8064;51.142;4.780;2023-07-16T02:36:37;6.83;;;2.90;;
15929;SDS011;8064;51.142;4.780;2023-07-16T02:39:03;6.27;;;2.67;;
15929;SDS011;8064;51.142;4.780;2023-07-16T02:41:28;5.83;;;3.33;;
15929;SDS011;8064;51.142;4.780;2023-07-16T02:46:38;4.93;;;2.93;;
15929;SDS011;8064;51.142;4.780;2023-07-16T02:49:04;5.63;;;2.70;;
15929;SDS011;8064;51.142;4.780;2023-07-16T02:51:30;6.17;;;2.80;;
15929;SDS011;8064;51.142;4.780;2023-07-16T02:53:56;6.97;;;2.93;;
15929;SDS011;8064;51.142;4.780;2023-07-16T02:56:22;6.73;;;2.53;;
15929;SDS011;8064;51.142;4.780;2023-07-16T02:58:48;4.37;;;2.33;;
15929;SDS011;8064;51.142;4.780;2023-07-16T03:01:13;9.07;;;2.90;;
15929;SDS011;8064;51.142;4.780;2023-07-16T03:03:39;7.27;;;2.30;;
15929;SDS011;8064;51.142;4.780;2023-07-16T03:06:05;4.83;;;2.30;;
15929;SDS011;8064;51.142;4.780;2023-07-16T03:08:32;4.97;;;2.33;;
15929;SDS011;8064;51.142;4.780;2023-07-16T03:10:59;6.80;;;2.80;;
15929;SDS011;8064;51.142;4.780;2023-07-16T03:13:25;8.77;;;2.90;;
15929;SDS011;8064;51.142;4.780;2023-07-16T03:15:50;8.83;;;2.83;;
15929;SDS011;8064;51.142;4.780;2023-07-16T03:18:18;6.53;;;2.97;;
15929;SDS011;8064;51.142;4.780;2023-07-16T03:20:44;9.90;;;2.90;;
15929;SDS011;8064;51.142;4.780;2023-07-16T03:23:10;8.30;;;2.97;;
15929;SDS011;8064;51.142;4.780;2023-07-16T03:25:36;9.40;;;3.57;;
15929;SDS011;8064;51.142;4.780;2023-07-16T03:28:01;10.40;;;3.80;;
15929;SDS011;8064;51.142;4.780;2023-07-16T03:30:27;8.03;;;3.10;;
15929;SDS011;8064;51.142;4.780;2023-07-16T03:32:55;7.83;;;3.00;;
15929;SDS011;8064;51.142;4.780;2023-07-16T03:35:21;10.80;;;4.03;;
15929;SDS011;8064;51.142;4.780;2023-07-16T03:37:46;10.77;;;3.87;;
15929;SDS011;8064;51.142;4.780;2023-07-16T03:40:14;10.27;;;3.60;;
15929;SDS011;8064;51.142;4.780;2023-07-16T03:42:42;7.80;;;3.40;;
15929;SDS011;8064;51.142;4.780;2023-07-16T03:45:09;6.57;;;3.43;;
15929;SDS011;8064;51.142;4.780;2023-07-16T03:47:36;6.87;;;3.40;;
15929;SDS011;8064;51.142;4.780;2023-07-16T03:50:02;5.13;;;3.80;;
15929;SDS011;8064;51.142;4.780;2023-07-16T03:52:28;9.43;;;3.43;;
15929;SDS011;8064;51.142;4.780;2023-07-16T03:54:54;9.60;;;3.77;;
15929;SDS011;8064;51.142;4.780;2023-07-16T03:57:20;6.77;;;3.60;;
15929;SDS011;8064;51.142;4.780;2023-07-16T03:59:46;7.73;;;3.60;;
15929;SDS011;8064;51.142;4.780;2023-07-16T04:02:12;8.57;;;3.53;;
15929;SDS011;8064;51.142;4.780;2023-07-16T04:04:38;8.13;;;3.23;;
15929;SDS011;8064;51.142;4.780;2023-07-16T04:07:04;6.30;;;3.70;;
15929;SDS011;8064;51.142;4.780;2023-07-16T04:09:30;7.90;;;3.60;;
15929;SDS011;8064;51.142;4.780;2023-07-16T04:11:55;9.07;;;3.87;;
15929;SDS011;8064;51.142;4.780;2023-07-16T04:14:21;6.80;;;3.37;;
15929;SDS011;8064;51.142;4.780;2023-07-16T04:16:47;7.53;;;3.70;;
15929;SDS011;8064;51.142;4.780;2023-07-16T04:19:13;6.80;;;3.47;;
15929;SDS011;8064;51.142;4.780;2023-07-16T04:21:38;6.87;;;3.60;;
15929;SDS011;8064;51.142;4.780;2023-07-16T04:24:04;7.57;;;4.00;;
15929;SDS011;8064;51.142;4.780;2023-07-16T04:26:31;6.53;;;3.70;;
15929;SDS011;8064;51.142;4.780;2023-07-16T04:28:57;5.90;;;3.50;;
15929;SDS011;8064;51.142;4.780;2023-07-16T04:31:23;7.03;;;3.90;;
15929;SDS011;8064;51.142;4.780;2023-07-16T04:33:49;8.93;;;3.93;;
15929;SDS011;8064;51.142;4.780;2023-07-16T04:36:15;8.57;;;3.90;;
15929;SDS011;8064;51.142;4.780;2023-07-16T04:38:41;7.30;;;3.37;;
15929;SDS011;8064;51.142;4.780;2023-07-16T04:41:07;8.50;;;4.03;;
15929;SDS011;8064;51.142;4.780;2023-07-16T04:43:32;8.43;;;4.20;;
15929;SDS011;8064;51.142;4.780;2023-07-16T04:45:58;8.20;;;3.60;;
15929;SDS011;8064;51.142;4.780;2023-07-16T04:48:25;7.30;;;4.10;;
15929;SDS011;8064;51.142;4.780;2023-07-16T04:50:51;6.63;;;3.57;;
15929;SDS011;8064;51.142;4.780;2023-07-16T04:53:17;8.07;;;3.90;;
15929;SDS011;8064;51.142;4.780;2023-07-16T04:55:44;7.93;;;3.63;;
15929;SDS011;8064;51.142;4.780;2023-07-16T04:58:11;10.10;;;3.90;;
15929;SDS011;8064;51.142;4.780;2023-07-16T05:00:37;5.57;;;4.07;;
15929;SDS011;8064;51.142;4.780;2023-07-16T05:03:03;5.73;;;3.87;;
15929;SDS011;8064;51.142;4.780;2023-07-16T05:05:29;10.53;;;4.17;;
15929;SDS011;8064;51.142;4.780;2023-07-16T05:07:55;7.20;;;4.03;;
15929;SDS011;8064;51.142;4.780;2023-07-16T05:10:21;7.17;;;4.13;;
15929;SDS011;8064;51.142;4.780;2023-07-16T05:12:47;9.00;;;4.57;;
15929;SDS011;8064;51.142;4.780;2023-07-16T05:15:12;8.40;;;4.23;;
15929;SDS011;8064;51.142;4.780;2023-07-16T05:17:40;6.40;;;4.60;;
15929;SDS011;8064;51.142;4.780;2023-07-16T05:20:06;11.43;;;4.43;;
15929;SDS011;8064;51.142;4.780;2023-07-16T05:22:32;10.53;;;4.30;;
15929;SDS011;8064;51.142;4.780;2023-07-16T05:24:58;9.93;;;4.10;;
15929;SDS011;8064;51.142;4.780;2023-07-16T05:27:24;8.20;;;4.50;;
15929;SDS011;8064;51.142;4.780;2023-07-16T05:29:50;7.53;;;4.43;;
15929;SDS011;8064;51.142;4.780;2023-07-16T05:32:16;7.87;;;4.60;;
15929;SDS011;8064;51.142;4.780;2023-07-16T05:34:41;10.67;;;5.03;;
15929;SDS011;8064;51.142;4.780;2023-07-16T05:37:07;6.67;;;4.43;;
15929;SDS011;8064;51.142;4.780;2023-07-16T05:39:33;8.90;;;4.67;;
15929;SDS011;8064;51.142;4.780;2023-07-16T05:41:59;8.77;;;4.47;;
15929;SDS011;8064;51.142;4.780;2023-07-16T05:44:27;10.57;;;5.10;;
15929;SDS011;8064;51.142;4.780;2023-07-16T05:46:53;11.37;;;5.00;;
15929;SDS011;8064;51.142;4.780;2023-07-16T05:49:19;11.17;;;5.00;;
15929;SDS011;8064;51.142;4.780;2023-07-16T05:51:45;7.90;;;4.83;;
15929;SDS011;8064;51.142;4.780;2023-07-16T05:54:10;9.93;;;4.63;;
15929;SDS011;8064;51.142;4.780;2023-07-16T05:56:36;10.07;;;5.10;;
15929;SDS011;8064;51.142;4.780;2023-07-16T05:59:02;9.87;;;5.17;;
15929;SDS011;8064;51.142;4.780;2023-07-16T06:01:28;10.90;;;5.10;;
15929;SDS011;8064;51.142;4.780;2023-07-16T06:03:53;9.23;;;5.43;;
15929;SDS011;8064;51.142;4.780;2023-07-16T06:06:19;10.17;;;5.07;;
15929;SDS011;8064;51.142;4.780;2023-07-16T06:08:45;8.53;;;4.90;;
15929;SDS011;8064;51.142;4.780;2023-07-16T06:11:11;11.03;;;5.13;;
15929;SDS011;8064;51.142;4.780;2023-07-16T06:13:37;9.87;;;5.17;;
15929;SDS011;8064;51.142;4.780;2023-07-16T06:16:03;16.70;;;5.73;;
15929;SDS011;8064;51.142;4.780;2023-07-16T06:18:29;10.30;;;5.60;;
15929;SDS011;8064;51.142;4.780;2023-07-16T06:20:56;9.33;;;5.33;;
15929;SDS011;8064;51.142;4.780;2023-07-16T06:23:22;13.07;;;5.80;;
15929;SDS011;8064;51.142;4.780;2023-07-16T06:25:47;11.73;;;5.70;;
15929;SDS011;8064;51.142;4.780;2023-07-16T06:28:18;10.50;;;5.37;;
15929;SDS011;8064;51.142;4.780;2023-07-16T06:30:44;9.60;;;5.40;;
15929;SDS011;8064;51.142;4.780;2023-07-16T06:33:10;13.77;;;6.10;;
15929;SDS011;8064;51.142;4.780;2023-07-16T06:35:35;10.17;;;5.27;;
15929;SDS011;8064;51.142;4.780;2023-07-16T06:38:01;9.70;;;5.40;;
15929;SDS011;8064;51.142;4.780;2023-07-16T06:40:28;9.63;;;5.43;;
15929;SDS011;8064;51.142;4.780;2023-07-16T06:42:54;8.87;;;5.43;;
15929;SDS011;8064;51.142;4.780;2023-07-16T06:45:20;9.67;;;5.40;;
15929;SDS011;8064;51.142;4.780;2023-07-16T06:47:46;10.20;;;5.50;;
15929;SDS011;8064;51.142;4.780;2023-07-16T06:50:11;14.47;;;5.80;;
15929;SDS011;8064;51.142;4.780;2023-07-16T06:52:37;8.10;;;5.30;;
15929;SDS011;8064;51.142;4.780;2023-07-16T06:55:03;9.00;;;5.20;;
15929;SDS011;8064;51.142;4.780;2023-07-16T06:57:30;9.83;;;5.10;;
15929;SDS011;8064;51.142;4.780;2023-07-16T06:59:56;10.67;;;5.70;;
15929;SDS011;8064;51.142;4.780;2023-07-16T07:02:22;10.70;;;5.23;;
15929;SDS011;8064;51.142;4.780;2023-07-16T07:04:48;8.23;;;5.20;;
15929;SDS011;8064;51.142;4.780;2023-07-16T07:07:15;11.60;;;5.60;;
15929;SDS011;8064;51.142;4.780;2023-07-16T07:09:40;8.67;;;5.00;;
15929;SDS011;8064;51.142;4.780;2023-07-16T07:12:06;10.80;;;5.50;;
15929;SDS011;8064;51.142;4.780;2023-07-16T07:14:33;11.67;;;5.70;;
15929;SDS011;8064;51.142;4.780;2023-07-16T07:16:58;10.10;;;5.40;;
15929;SDS011;8064;51.142;4.780;2023-07-16T07:19:24;9.27;;;5.40;;
15929;SDS011;8064;51.142;4.780;2023-07-16T07:21:50;10.07;;;5.70;;
15929;SDS011;8064;51.142;4.780;2023-07-16T07:24:16;8.15;;;4.80;;
15929;SDS011;8064;51.142;4.780;2023-07-16T07:26:42;9.23;;;5.32;;
15929;SDS011;8064;51.142;4.780;2023-07-16T07:29:08;10.52;;;5.50;;
15929;SDS011;8064;51.142;4.780;2023-07-16T07:31:33;8.77;;;4.63;;
15929;SDS011;8064;51.142;4.780;2023-07-16T07:33:59;9.88;;;5.22;;
15929;SDS011;8064;51.142;4.780;2023-07-16T07:36:25;9.70;;;5.03;;
15929;SDS011;8064;51.142;4.780;2023-07-16T07:38:51;10.93;;;5.10;;
15929;SDS011;8064;51.142;4.780;2023-07-16T07:41:16;10.18;;;5.10;;
15929;SDS011;8064;51.142;4.780;2023-07-16T07:43:42;10.45;;;4.78;;
15929;SDS011;8064;51.142;4.780;2023-07-16T07:46:08;11.00;;;5.18;;
15929;SDS011;8064;51.142;4.780;2023-07-16T07:48:35;9.35;;;4.90;;
15929;SDS011;8064;51.142;4.780;2023-07-16T07:51:00;9.30;;;5.32;;
15929;SDS011;8064;51.142;4.780;2023-07-16T07:53:26;13.10;;;5.63;;
15929;SDS011;8064;51.142;4.780;2023-07-16T07:55:52;9.20;;;4.57;;
15929;SDS011;8064;51.142;4.780;2023-07-16T07:58:19;9.40;;;5.95;;
15929;SDS011;8064;51.142;4.780;2023-07-16T08:00:45;7.50;;;5.07;;
15929;SDS011;8064;51.142;4.780;2023-07-16T08:03:10;12.13;;;5.50;;
15929;SDS011;8064;51.142;4.780;2023-07-16T08:05:36;7.47;;;4.63;;
15929;SDS011;8064;51.142;4.780;2023-07-16T08:08:02;9.57;;;4.97;;
15929;SDS011;8064;51.142;4.780;2023-07-16T08:10:28;8.55;;;4.90;;
15929;SDS011;8064;51.142;4.780;2023-07-16T08:12:54;8.20;;;5.13;;
15929;SDS011;8064;51.142;4.780;2023-07-16T08:15:19;10.35;;;4.80;;
15929;SDS011;8064;51.142;4.780;2023-07-16T08:17:45;10.05;;;5.00;;
15929;SDS011;8064;51.142;4.780;2023-07-16T08:20:11;8.60;;;5.65;;
15929;SDS011;8064;51.142;4.780;2023-07-16T08:22:37;7.30;;;4.60;;
15929;SDS011;8064;51.142;4.780;2023-07-16T08:25:07;8.60;;;5.00;;
15929;SDS011;8064;51.142;4.780;2023-07-16T08:27:39;11.40;;;5.75;;
15929;SDS011;8064;51.142;4.780;2023-07-16T08:30:06;9.95;;;5.35;;
15929;SDS011;8064;51.142;4.780;2023-07-16T08:32:34;10.88;;;5.07;;
15929;SDS011;8064;51.142;4.780;2023-07-16T08:34:59;5.93;;;3.95;;
15929;SDS011;8064;51.142;4.780;2023-07-16T08:37:26;9.02;;;5.15;;
15929;SDS011;8064;51.142;4.780;2023-07-16T08:39:54;10.02;;;5.05;;
15929;SDS011;8064;51.142;4.780;2023-07-16T08:42:20;8.25;;;4.80;;
15929;SDS011;8064;51.142;4.780;2023-07-16T08:44:56;7.50;;;5.07;;
15929;SDS011;8064;51.142;4.780;2023-07-16T08:47:22;8.38;;;4.65;;
15929;SDS011;8064;51.142;4.780;2023-07-16T08:52:36;8.50;;;4.65;;
15929;SDS011;8064;51.142;4.780;2023-07-16T08:55:05;9.13;;;4.57;;
15929;SDS011;8064;51.142;4.780;2023-07-16T08:57:31;9.05;;;4.40;;
15929;SDS011;8064;51.142;4.780;2023-07-16T08:59:57;10.32;;;5.28;;
15929;SDS011;8064;51.142;4.780;2023-07-16T09:02:24;8.00;;;4.40;;
15929;SDS011;8064;51.142;4.780;2023-07-16T09:04:50;7.70;;;5.00;;
15929;SDS011;8064;51.142;4.780;2023-07-16T09:07:17;5.90;;;4.40;;
15929;SDS011;8064;51.142;4.780;2023-07-16T09:09:43;5.60;;;4.20;;
15929;SDS011;8064;51.142;4.780;2023-07-16T09:12:19;5.15;;;4.00;;
15929;SDS011;8064;51.142;4.780;2023-07-16T09:14:49;6.68;;;4.55;;
15929;SDS011;8064;51.142;4.780;2023-07-16T09:17:19;7.70;;;4.22;;
15929;SDS011;8064;51.142;4.780;2023-07-16T09:19:47;7.70;;;4.65;;
15929;SDS011;8064;51.142;4.780;2023-07-16T09:22:13;6.75;;;4.07;;
15929;SDS011;8064;51.142;4.780;2023-07-16T09:24:38;6.45;;;4.63;;
15929;SDS011;8064;51.142;4.780;2023-07-16T09:27:04;6.80;;;4.05;;
15929;SDS011;8064;51.142;4.780;2023-07-16T09:29:30;8.05;;;4.20;;
15929;SDS011;8064;51.142;4.780;2023-07-16T09:31:58;8.32;;;4.22;;
15929;SDS011;8064;51.142;4.780;2023-07-16T09:34:27;7.38;;;4.47;;
15929;SDS011;8064;51.142;4.780;2023-07-16T09:36:53;7.63;;;4.47;;
15929;SDS011;8064;51.142;4.780;2023-07-16T09:39:19;6.38;;;4.10;;
15929;SDS011;8064;51.142;4.780;2023-07-16T09:41:46;7.88;;;4.60;;
15929;SDS011;8064;51.142;4.780;2023-07-16T09:44:13;8.40;;;4.47;;
15929;SDS011;8064;51.142;4.780;2023-07-16T09:46:40;6.40;;;4.10;;
15929;SDS011;8064;51.142;4.780;2023-07-16T09:49:06;6.15;;;3.55;;
15929;SDS011;8064;51.142;4.780;2023-07-16T09:51:33;7.45;;;3.70;;
15929;SDS011;8064;51.142;4.780;2023-07-16T09:54:01;9.20;;;4.25;;
15929;SDS011;8064;51.142;4.780;2023-07-16T09:56:32;8.40;;;4.15;;
15929;SDS011;8064;51.142;4.780;2023-07-16T09:59:02;8.20;;;3.90;;
15929;SDS011;8064;51.142;4.780;2023-07-16T10:01:35;7.82;;;3.85;;
15929;SDS011;8064;51.142;4.780;2023-07-16T10:09:50;6.70;;;3.72;;
15929;SDS011;8064;51.142;4.780;2023-07-16T10:12:19;7.20;;;3.95;;
15929;SDS011;8064;51.142;4.780;2023-07-16T10:14:47;8.32;;;3.50;;
15929;SDS011;8064;51.142;4.780;2023-07-16T10:17:14;6.15;;;4.00;;
15929;SDS011;8064;51.142;4.780;2023-07-16T10:25:09;10.60;;;4.35;;
15929;SDS011;8064;51.142;4.780;2023-07-16T10:27:55;5.15;;;3.53;;
15929;SDS011;8064;51.142;4.780;2023-07-16T10:30:20;11.60;;;3.72;;
15929;SDS011;8064;51.142;4.780;2023-07-16T10:32:47;5.45;;;3.58;;
15929;SDS011;8064;51.142;4.780;2023-07-16T10:35:15;7.50;;;3.97;;
15929;SDS011;8064;51.142;4.780;2023-07-16T10:37:41;8.65;;;4.25;;
15929;SDS011;8064;51.142;4.780;2023-07-16T10:40:17;6.75;;;3.80;;
15929;SDS011;8064;51.142;4.780;2023-07-16T10:42:43;7.68;;;4.15;;
15929;SDS011;8064;51.142;4.780;2023-07-16T10:45:11;7.65;;;4.07;;
15929;SDS011;8064;51.142;4.780;2023-07-16T10:47:40;7.75;;;4.43;;
15929;SDS011;8064;51.142;4.780;2023-07-16T10:50:18;6.47;;;3.78;;
15929;SDS011;8064;51.142;4.780;2023-07-16T10:52:46;6.15;;;4.13;;
15929;SDS011;8064;51.142;4.780;2023-07-16T10:55:17;8.77;;;4.90;;
15929;SDS011;8064;51.142;4.780;2023-07-16T10:57:43;7.88;;;3.92;;
15929;SDS011;8064;51.142;4.780;2023-07-16T11:00:10;9.82;;;4.28;;
15929;SDS011;8064;51.142;4.780;2023-07-16T11:02:38;8.45;;;4.38;;
15929;SDS011;8064;51.142;4.780;2023-07-16T11:05:09;6.18;;;3.80;;
15929;SDS011;8064;51.142;4.780;2023-07-16T11:07:36;8.55;;;4.38;;
15929;SDS011;8064;51.142;4.780;2023-07-16T11:10:02;7.85;;;3.85;;
15929;SDS011;8064;51.142;4.780;2023-07-16T11:12:28;8.30;;;4.45;;
15929;SDS011;8064;51.142;4.780;2023-07-16T11:14:54;6.05;;;3.92;;
15929;SDS011;8064;51.142;4.780;2023-07-16T11:17:22;8.98;;;4.78;;
15929;SDS011;8064;51.142;4.780;2023-07-16T11:19:50;6.72;;;4.13;;
15929;SDS011;8064;51.142;4.780;2023-07-16T11:22:17;7.63;;;3.92;;
15929;SDS011;8064;51.142;4.780;2023-07-16T11:24:44;6.47;;;3.53;;
15929;SDS011;8064;51.142;4.780;2023-07-16T11:27:21;7.80;;;4.00;;
15929;SDS011;8064;51.142;4.780;2023-07-16T11:29:49;4.82;;;3.22;;
15929;SDS011;8064;51.142;4.780;2023-07-16T11:32:31;8.35;;;4.13;;
15929;SDS011;8064;51.142;4.780;2023-07-16T11:34:59;11.38;;;4.32;;
15929;SDS011;8064;51.142;4.780;2023-07-16T11:37:27;5.85;;;3.67;;
15929;SDS011;8064;51.142;4.780;2023-07-16T11:39:55;6.30;;;3.75;;
15929;SDS011;8064;51.142;4.780;2023-07-16T11:42:22;6.80;;;3.55;;
15929;SDS011;8064;51.142;4.780;2023-07-16T11:44:49;8.40;;;3.30;;
15929;SDS011;8064;51.142;4.780;2023-07-16T11:47:15;6.32;;;4.15;;
15929;SDS011;8064;51.142;4.780;2023-07-16T11:49:41;6.13;;;3.53;;
15929;SDS011;8064;51.142;4.780;2023-07-16T11:52:07;7.35;;;3.70;;
15929;SDS011;8064;51.142;4.780;2023-07-16T11:54:33;5.47;;;3.05;;
15929;SDS011;8064;51.142;4.780;2023-07-16T11:56:58;9.20;;;4.18;;
15929;SDS011;8064;51.142;4.780;2023-07-16T11:59:24;8.75;;;4.75;;
15929;SDS011;8064;51.142;4.780;2023-07-16T12:01:50;8.50;;;3.95;;
15929;SDS011;8064;51.142;4.780;2023-07-16T12:04:16;7.35;;;4.90;;
15929;SDS011;8064;51.142;4.780;2023-07-16T12:06:42;6.43;;;4.00;;
15929;SDS011;8064;51.142;4.780;2023-07-16T12:09:08;6.13;;;4.57;;
15929;SDS011;8064;51.142;4.780;2023-07-16T12:11:34;5.40;;;3.85;;
15929;SDS011;8064;51.142;4.780;2023-07-16T12:14:01;7.78;;;4.15;;
15929;SDS011;8064;51.142;4.780;2023-07-16T12:16:27;5.97;;;3.60;;
15929;SDS011;8064;51.142;4.780;2023-07-16T12:18:53;8.02;;;3.08;;
15929;SDS011;8064;51.142;4.780;2023-07-16T12:21:18;7.38;;;3.15;;
15929;SDS011;8064;51.142;4.780;2023-07-16T12:23:44;6.88;;;3.17;;
15929;SDS011;8064;51.142;4.780;2023-07-16T12:26:10;3.30;;;2.50;;
15929;SDS011;8064;51.142;4.780;2023-07-16T12:28:36;5.22;;;3.10;;
15929;SDS011;8064;51.142;4.780;2023-07-16T12:31:02;6.05;;;3.05;;
15929;SDS011;8064;51.142;4.780;2023-07-16T12:33:28;4.13;;;2.63;;
15929;SDS011;8064;51.142;4.780;2023-07-16T12:35:53;5.55;;;2.38;;
15929;SDS011;8064;51.142;4.780;2023-07-16T12:38:19;5.35;;;2.55;;
15929;SDS011;8064;51.142;4.780;2023-07-16T12:40:47;4.22;;;3.22;;
15929;SDS011;8064;51.142;4.780;2023-07-16T12:43:13;5.28;;;3.05;;
15929;SDS011;8064;51.142;4.780;2023-07-16T12:45:39;5.95;;;2.90;;
15929;SDS011;8064;51.142;4.780;2023-07-16T12:48:06;6.50;;;3.35;;
15929;SDS011;8064;51.142;4.780;2023-07-16T12:50:31;6.35;;;3.53;;
15929;SDS011;8064;51.142;4.780;2023-07-16T12:52:57;5.97;;;3.42;;
15929;SDS011;8064;51.142;4.780;2023-07-16T12:55:23;4.60;;;3.30;;
15929;SDS011;8064;51.142;4.780;2023-07-16T12:57:49;5.15;;;3.13;;
15929;SDS011;8064;51.142;4.780;2023-07-16T13:00:15;7.07;;;3.33;;
15929;SDS011;8064;51.142;4.780;2023-07-16T13:02:41;6.47;;;3.30;;
15929;SDS011;8064;51.142;4.780;2023-07-16T13:05:07;5.20;;;3.10;;
15929;SDS011;8064;51.142;4.780;2023-07-16T13:07:33;5.80;;;3.30;;
15929;SDS011;8064;51.142;4.780;2023-07-16T13:09:59;6.65;;;3.10;;
15929;SDS011;8064;51.142;4.780;2023-07-16T13:12:24;6.15;;;3.05;;
15929;SDS011;8064;51.142;4.780;2023-07-16T13:14:50;5.95;;;3.38;;
15929;SDS011;8064;51.142;4.780;2023-07-16T13:17:16;6.25;;;2.97;;
15929;SDS011;8064;51.142;4.780;2023-07-16T13:19:44;7.07;;;3.00;;
15929;SDS011;8064;51.142;4.780;2023-07-16T13:22:10;6.63;;;2.90;;
15929;SDS011;8064;51.142;4.780;2023-07-16T13:24:35;5.40;;;2.78;;
15929;SDS011;8064;51.142;4.780;2023-07-16T13:27:01;5.60;;;3.40;;
15929;SDS011;8064;51.142;4.780;2023-07-16T13:29:27;6.28;;;3.45;;
15929;SDS011;8064;51.142;4.780;2023-07-16T13:31:53;7.35;;;3.33;;
15929;SDS011;8064;51.142;4.780;2023-07-16T13:34:19;3.72;;;2.70;;
15929;SDS011;8064;51.142;4.780;2023-07-16T13:36:45;6.30;;;3.53;;
15929;SDS011;8064;51.142;4.780;2023-07-16T13:39:10;6.75;;;3.03;;
15929;SDS011;8064;51.142;4.780;2023-07-16T13:41:38;5.18;;;2.95;;
15929;SDS011;8064;51.142;4.780;2023-07-16T13:44:04;4.45;;;2.83;;
15929;SDS011;8064;51.142;4.780;2023-07-16T13:46:30;4.35;;;2.63;;
15929;SDS011;8064;51.142;4.780;2023-07-16T13:48:56;6.50;;;2.78;;
15929;SDS011;8064;51.142;4.780;2023-07-16T13:51:22;5.18;;;2.90;;
15929;SDS011;8064;51.142;4.780;2023-07-16T13:53:48;4.45;;;2.58;;
15929;SDS011;8064;51.142;4.780;2023-07-16T13:56:14;4.53;;;2.90;;
15929;SDS011;8064;51.142;4.780;2023-07-16T13:58:39;4.45;;;2.72;;
15929;SDS011;8064;51.142;4.780;2023-07-16T14:01:05;6.43;;;2.60;;
15929;SDS011;8064;51.142;4.780;2023-07-16T14:03:31;6.57;;;2.92;;
15929;SDS011;8064;51.142;4.780;2023-07-16T14:05:57;4.38;;;2.53;;
15929;SDS011;8064;51.142;4.780;2023-07-16T14:08:23;5.63;;;2.53;;
15929;SDS011;8064;51.142;4.780;2023-07-16T14:10:49;7.15;;;2.75;;
15929;SDS011;8064;51.142;4.780;2023-07-16T14:13:14;4.55;;;2.35;;
15929;SDS011;8064;51.142;4.780;2023-07-16T14:15:41;5.10;;;2.83;;
15929;SDS011;8064;51.142;4.780;2023-07-16T14:18:07;5.35;;;2.95;;
15929;SDS011;8064;51.142;4.780;2023-07-16T14:20:33;4.10;;;2.38;;
15929;SDS011;8064;51.142;4.780;2023-07-16T14:22:58;4.43;;;2.63;;
15929;SDS011;8064;51.142;4.780;2023-07-16T14:25:25;4.85;;;2.10;;
15929;SDS011;8064;51.142;4.780;2023-07-16T14:27:50;3.70;;;2.20;;
15929;SDS011;8064;51.142;4.780;2023-07-16T14:30:16;2.58;;;1.70;;
15929;SDS011;8064;51.142;4.780;2023-07-16T14:32:42;3.25;;;1.85;;
15929;SDS011;8064;51.142;4.780;2023-07-16T14:35:08;2.22;;;1.35;;
15929;SDS011;8064;51.142;4.780;2023-07-16T14:37:34;2.33;;;1.50;;
15929;SDS011;8064;51.142;4.780;2023-07-16T14:40:00;2.58;;;1.55;;
15929;SDS011;8064;51.142;4.780;2023-07-16T14:42:26;1.90;;;1.40;;
15929;SDS011;8064;51.142;4.780;2023-07-16T14:44:51;2.00;;;1.50;;
15929;SDS011;8064;51.142;4.780;2023-07-16T14:47:17;3.00;;;1.85;;
15929;SDS011;8064;51.142;4.780;2023-07-16T14:49:43;2.58;;;1.63;;
15929;SDS011;8064;51.142;4.780;2023-07-16T14:52:09;3.65;;;1.80;;
15929;SDS011;8064;51.142;4.780;2023-07-16T14:54:34;2.83;;;1.75;;
15929;SDS011;8064;51.142;4.780;2023-07-16T14:57:01;2.80;;;1.80;;
15929;SDS011;8064;51.142;4.780;2023-07-16T14:59:28;5.93;;;2.13;;
15929;SDS011;8064;51.142;4.780;2023-07-16T15:01:54;2.13;;;1.83;;
15929;SDS011;8064;51.142;4.780;2023-07-16T15:04:19;3.50;;;1.77;;
15929;SDS011;8064;51.142;4.780;2023-07-16T15:06:45;5.03;;;2.20;;
15929;SDS011;8064;51.142;4.780;2023-07-16T15:09:11;2.95;;;1.88;;
15929;SDS011;8064;51.142;4.780;2023-07-16T15:11:39;3.65;;;1.98;;
15929;SDS011;8064;51.142;4.780;2023-07-16T15:14:04;3.88;;;2.05;;
15929;SDS011;8064;51.142;4.780;2023-07-16T15:16:30;3.88;;;2.13;;
15929;SDS011;8064;51.142;4.780;2023-07-16T15:18:56;3.47;;;1.90;;